sensor_id;sensor_type;location;lat;lon;timestamp;temperature;humidity
74224;SHT31;62585;49.706;18.216;2023-04-25T00:02:21;10.53;92.28
74224;SHT31;62585;49.706;18.216;2023-04-25T00:04:47;10.28;93.68
74224;SHT31;62585;49.706;18.216;2023-04-25T00:07:14;10.23;93.74
74224;SHT31;62585;49.706;18.216;2023-04-25T00:09:41;10.32;93.26
74224;SHT31;62585;49.706;18.216;2023-04-25T00:12:07;10.42;92.79
74224;SHT31;62585;49.706;18.216;2023-04-25T00:14:34;10.31;91.69
74224;SHT31;62585;49.706;18.216;2023-04-25T00:17:01;10.23;92.71
74224;SHT31;62585;49.706;18.216;2023-04-25T00:19:28;10.21;92.97
74224;SHT31;62585;49.706;18.216;2023-04-25T00:21:55;10.14;92.61
74224;SHT31;62585;49.706;18.216;2023-04-25T00:24:21;10.05;93.14
74224;SHT31;62585;49.706;18.216;2023-04-25T00:26:47;10.02;92.33
74224;SHT31;62585;49.706;18.216;2023-04-25T00:29:13;9.98;92.32
74224;SHT31;62585;49.706;18.216;2023-04-25T00:31:38;9.93;92.77
74224;SHT31;62585;49.706;18.216;2023-04-25T00:34:06;9.85;92.84
74224;SHT31;62585;49.706;18.216;2023-04-25T00:36:31;9.84;93.33
74224;SHT31;62585;49.706;18.216;2023-04-25T00:38:57;9.83;92.55
74224;SHT31;62585;49.706;18.216;2023-04-25T00:41:25;9.84;93.07
74224;SHT31;62585;49.706;18.216;2023-04-25T00:43:51;9.90;93.15
74224;SHT31;62585;49.706;18.216;2023-04-25T00:46:19;9.90;92.39
74224;SHT31;62585;49.706;18.216;2023-04-25T00:48:45;9.95;93.12
74224;SHT31;62585;49.706;18.216;2023-04-25T00:51:14;10.02;92.41
74224;SHT31;62585;49.706;18.216;2023-04-25T00:53:41;9.98;92.76
74224;SHT31;62585;49.706;18.216;2023-04-25T00:56:07;9.91;91.29
74224;SHT31;62585;49.706;18.216;2023-04-25T00:58:33;9.95;92.16
74224;SHT31;62585;49.706;18.216;2023-04-25T01:01:00;9.78;93.05
74224;SHT31;62585;49.706;18.216;2023-04-25T01:03:26;9.77;93.31
74224;SHT31;62585;49.706;18.216;2023-04-25T01:05:54;9.85;92.96
74224;SHT31;62585;49.706;18.216;2023-04-25T01:08:23;9.84;93.16
74224;SHT31;62585;49.706;18.216;2023-04-25T01:10:50;9.98;92.91
74224;SHT31;62585;49.706;18.216;2023-04-25T01:13:16;9.87;93.82
74224;SHT31;62585;49.706;18.216;2023-04-25T01:15:42;9.83;94.23
74224;SHT31;62585;49.706;18.216;2023-04-25T01:18:09;9.75;94.28
74224;SHT31;62585;49.706;18.216;2023-04-25T01:20:37;9.80;94.89
74224;SHT31;62585;49.706;18.216;2023-04-25T01:23:04;9.84;95.11
74224;SHT31;62585;49.706;18.216;2023-04-25T01:25:30;9.78;94.13
74224;SHT31;62585;49.706;18.216;2023-04-25T01:27:58;9.85;94.21
74224;SHT31;62585;49.706;18.216;2023-04-25T01:30:26;9.88;94.54
74224;SHT31;62585;49.706;18.216;2023-04-25T01:32:55;9.87;95.10
74224;SHT31;62585;49.706;18.216;2023-04-25T01:35:21;9.84;94.72
74224;SHT31;62585;49.706;18.216;2023-04-25T01:37:50;9.73;95.22
74224;SHT31;62585;49.706;18.216;2023-04-25T01:40:17;9.78;94.69
74224;SHT31;62585;49.706;18.216;2023-04-25T01:42:45;9.80;94.67
74224;SHT31;62585;49.706;18.216;2023-04-25T01:45:11;9.84;93.07
74224;SHT31;62585;49.706;18.216;2023-04-25T01:47:38;9.87;93.89
74224;SHT31;62585;49.706;18.216;2023-04-25T01:50:07;9.84;93.79
74224;SHT31;62585;49.706;18.216;2023-04-25T01:52:33;9.77;93.17
74224;SHT31;62585;49.706;18.216;2023-04-25T01:55:02;9.81;93.71
74224;SHT31;62585;49.706;18.216;2023-04-25T01:57:28;9.75;93.30
74224;SHT31;62585;49.706;18.216;2023-04-25T02:00:02;9.71;93.31
74224;SHT31;62585;49.706;18.216;2023-04-25T02:02:28;9.69;93.47
74224;SHT31;62585;49.706;18.216;2023-04-25T02:04:54;9.61;93.97
74224;SHT31;62585;49.706;18.216;2023-04-25T02:07:20;9.48;93.72
74224;SHT31;62585;49.706;18.216;2023-04-25T02:09:46;9.54;93.84
74224;SHT31;62585;49.706;18.216;2023-04-25T02:12:12;9.50;92.70
74224;SHT31;62585;49.706;18.216;2023-04-25T02:14:38;9.50;92.57
74224;SHT31;62585;49.706;18.216;2023-04-25T02:17:03;9.46;92.56
74224;SHT31;62585;49.706;18.216;2023-04-25T02:19:29;9.42;92.41
74224;SHT31;62585;49.706;18.216;2023-04-25T02:21:55;9.36;93.38
74224;SHT31;62585;49.706;18.216;2023-04-25T02:24:22;9.30;93.23
74224;SHT31;62585;49.706;18.216;2023-04-25T02:26:48;9.35;93.52
74224;SHT31;62585;49.706;18.216;2023-04-25T02:29:15;9.27;93.48
74224;SHT31;62585;49.706;18.216;2023-04-25T02:31:41;9.23;93.71
74224;SHT31;62585;49.706;18.216;2023-04-25T02:34:07;9.25;93.73
74224;SHT31;62585;49.706;18.216;2023-04-25T02:36:33;9.22;93.66
74224;SHT31;62585;49.706;18.216;2023-04-25T02:39:01;9.22;93.16
74224;SHT31;62585;49.706;18.216;2023-04-25T02:41:28;9.20;92.86
74224;SHT31;62585;49.706;18.216;2023-04-25T02:43:54;9.18;93.33
74224;SHT31;62585;49.706;18.216;2023-04-25T02:46:20;9.19;93.02
74224;SHT31;62585;49.706;18.216;2023-04-25T02:48:46;9.12;93.20
74224;SHT31;62585;49.706;18.216;2023-04-25T02:51:12;9.07;92.61
74224;SHT31;62585;49.706;18.216;2023-04-25T02:53:37;9.05;92.09
74224;SHT31;62585;49.706;18.216;2023-04-25T02:56:03;9.15;91.65
74224;SHT31;62585;49.706;18.216;2023-04-25T02:58:29;9.11;91.90
74224;SHT31;62585;49.706;18.216;2023-04-25T03:00:55;9.12;91.78
74224;SHT31;62585;49.706;18.216;2023-04-25T03:03:21;9.11;91.97
74224;SHT31;62585;49.706;18.216;2023-04-25T03:05:50;9.02;92.36
74224;SHT31;62585;49.706;18.216;2023-04-25T03:08:17;8.92;92.99
74224;SHT31;62585;49.706;18.216;2023-04-25T03:10:43;8.93;92.54
74224;SHT31;62585;49.706;18.216;2023-04-25T03:13:09;8.93;92.75
74224;SHT31;62585;49.706;18.216;2023-04-25T03:15:35;8.95;92.32
74224;SHT31;62585;49.706;18.216;2023-04-25T03:18:02;8.91;92.70
74224;SHT31;62585;49.706;18.216;2023-04-25T03:20:28;8.88;92.24
74224;SHT31;62585;49.706;18.216;2023-04-25T03:22:53;8.82;92.26
74224;SHT31;62585;49.706;18.216;2023-04-25T03:25:19;8.72;92.07
74224;SHT31;62585;49.706;18.216;2023-04-25T03:27:45;8.80;92.19
74224;SHT31;62585;49.706;18.216;2023-04-25T03:30:11;8.72;92.26
74224;SHT31;62585;49.706;18.216;2023-04-25T03:32:37;8.59;91.97
74224;SHT31;62585;49.706;18.216;2023-04-25T03:35:04;8.60;92.10
74224;SHT31;62585;49.706;18.216;2023-04-25T03:37:30;8.65;92.28
74224;SHT31;62585;49.706;18.216;2023-04-25T03:39:56;8.71;92.66
74224;SHT31;62585;49.706;18.216;2023-04-25T03:42:22;8.81;91.21
74224;SHT31;62585;49.706;18.216;2023-04-25T03:44:49;8.77;90.21
74224;SHT31;62585;49.706;18.216;2023-04-25T03:47:15;8.71;89.47
74224;SHT31;62585;49.706;18.216;2023-04-25T03:49:41;8.82;89.91
74224;SHT31;62585;49.706;18.216;2023-04-25T03:52:07;8.75;89.95
74224;SHT31;62585;49.706;18.216;2023-04-25T03:54:32;8.82;88.96
74224;SHT31;62585;49.706;18.216;2023-04-25T03:56:58;8.84;89.91
74224;SHT31;62585;49.706;18.216;2023-04-25T03:59:24;8.81;89.88
74224;SHT31;62585;49.706;18.216;2023-04-25T04:01:51;8.85;90.03
74224;SHT31;62585;49.706;18.216;2023-04-25T04:04:18;8.81;90.40
74224;SHT31;62585;49.706;18.216;2023-04-25T04:06:44;8.82;90.48
74224;SHT31;62585;49.706;18.216;2023-04-25T04:09:10;8.82;90.03
74224;SHT31;62585;49.706;18.216;2023-04-25T04:11:37;8.82;90.96
74224;SHT31;62585;49.706;18.216;2023-04-25T04:14:07;8.87;90.92
74224;SHT31;62585;49.706;18.216;2023-04-25T04:16:33;8.91;90.30
74224;SHT31;62585;49.706;18.216;2023-04-25T04:18:58;8.93;91.04
74224;SHT31;62585;49.706;18.216;2023-04-25T04:21:24;8.82;91.02
74224;SHT31;62585;49.706;18.216;2023-04-25T04:23:50;8.82;91.45
74224;SHT31;62585;49.706;18.216;2023-04-25T04:26:15;8.89;91.31
74224;SHT31;62585;49.706;18.216;2023-04-25T04:28:43;8.78;90.73
74224;SHT31;62585;49.706;18.216;2023-04-25T04:31:10;8.71;91.33
74224;SHT31;62585;49.706;18.216;2023-04-25T04:33:36;8.65;91.10
74224;SHT31;62585;49.706;18.216;2023-04-25T04:36:03;8.57;91.60
74224;SHT31;62585;49.706;18.216;2023-04-25T04:38:29;8.59;90.94
74224;SHT31;62585;49.706;18.216;2023-04-25T04:40:55;8.68;90.63
74224;SHT31;62585;49.706;18.216;2023-04-25T04:43:21;8.70;92.00
74224;SHT31;62585;49.706;18.216;2023-04-25T04:45:48;8.71;90.48
74224;SHT31;62585;49.706;18.216;2023-04-25T04:48:15;8.78;90.35
74224;SHT31;62585;49.706;18.216;2023-04-25T04:50:44;8.65;91.29
74224;SHT31;62585;49.706;18.216;2023-04-25T04:53:13;8.71;90.57
74224;SHT31;62585;49.706;18.216;2023-04-25T04:55:39;8.65;90.78
74224;SHT31;62585;49.706;18.216;2023-04-25T04:58:08;8.70;90.54
74224;SHT31;62585;49.706;18.216;2023-04-25T05:00:34;8.78;90.25
74224;SHT31;62585;49.706;18.216;2023-04-25T05:03:00;8.80;90.32
74224;SHT31;62585;49.706;18.216;2023-04-25T05:05:25;8.77;92.41
74224;SHT31;62585;49.706;18.216;2023-04-25T05:07:51;8.82;91.60
74224;SHT31;62585;49.706;18.216;2023-04-25T05:10:18;8.85;90.86
74224;SHT31;62585;49.706;18.216;2023-04-25T05:12:44;8.92;90.37
74224;SHT31;62585;49.706;18.216;2023-04-25T05:15:10;8.92;90.31
74224;SHT31;62585;49.706;18.216;2023-04-25T05:17:37;8.84;90.95
74224;SHT31;62585;49.706;18.216;2023-04-25T05:20:03;8.88;91.15
74224;SHT31;62585;49.706;18.216;2023-04-25T05:22:31;9.01;90.88
74224;SHT31;62585;49.706;18.216;2023-04-25T05:24:56;9.09;89.83
74224;SHT31;62585;49.706;18.216;2023-04-25T05:27:24;9.11;89.87
74224;SHT31;62585;49.706;18.216;2023-04-25T05:29:49;9.04;91.49
74224;SHT31;62585;49.706;18.216;2023-04-25T05:32:15;9.01;89.86
74224;SHT31;62585;49.706;18.216;2023-04-25T05:34:41;8.99;87.88
74224;SHT31;62585;49.706;18.216;2023-04-25T05:37:07;8.97;90.11
74224;SHT31;62585;49.706;18.216;2023-04-25T05:39:33;9.04;89.30
74224;SHT31;62585;49.706;18.216;2023-04-25T05:41:59;9.05;89.70
74224;SHT31;62585;49.706;18.216;2023-04-25T05:44:24;9.08;89.15
74224;SHT31;62585;49.706;18.216;2023-04-25T05:46:50;9.16;89.40
74224;SHT31;62585;49.706;18.216;2023-04-25T05:49:16;9.14;89.11
74224;SHT31;62585;49.706;18.216;2023-04-25T05:51:42;9.23;89.29
74224;SHT31;62585;49.706;18.216;2023-04-25T05:54:07;9.27;88.03
74224;SHT31;62585;49.706;18.216;2023-04-25T05:56:33;9.23;87.28
74224;SHT31;62585;49.706;18.216;2023-04-25T05:58:59;9.40;86.82
74224;SHT31;62585;49.706;18.216;2023-04-25T06:01:25;9.42;86.33
74224;SHT31;62585;49.706;18.216;2023-04-25T06:03:50;9.47;85.98
74224;SHT31;62585;49.706;18.216;2023-04-25T06:06:18;9.40;86.51
74224;SHT31;62585;49.706;18.216;2023-04-25T06:08:44;9.50;86.41
74224;SHT31;62585;49.706;18.216;2023-04-25T06:11:11;9.60;85.62
74224;SHT31;62585;49.706;18.216;2023-04-25T06:13:36;9.66;85.92
74224;SHT31;62585;49.706;18.216;2023-04-25T06:16:02;9.80;85.34
74224;SHT31;62585;49.706;18.216;2023-04-25T06:18:28;9.84;84.46
74224;SHT31;62585;49.706;18.216;2023-04-25T06:20:54;9.88;84.75
74224;SHT31;62585;49.706;18.216;2023-04-25T06:23:19;9.94;83.91
74224;SHT31;62585;49.706;18.216;2023-04-25T06:25:46;9.88;82.24
74224;SHT31;62585;49.706;18.216;2023-04-25T06:28:11;9.85;81.14
74224;SHT31;62585;49.706;18.216;2023-04-25T06:30:37;9.90;84.50
74224;SHT31;62585;49.706;18.216;2023-04-25T06:33:03;9.87;80.45
74224;SHT31;62585;49.706;18.216;2023-04-25T06:35:29;10.02;82.02
74224;SHT31;62585;49.706;18.216;2023-04-25T06:37:55;10.12;80.69
74224;SHT31;62585;49.706;18.216;2023-04-25T06:40:21;10.14;79.58
74224;SHT31;62585;49.706;18.216;2023-04-25T06:42:46;10.19;79.88
74224;SHT31;62585;49.706;18.216;2023-04-25T06:45:12;10.19;81.24
74224;SHT31;62585;49.706;18.216;2023-04-25T06:47:38;10.16;79.17
74224;SHT31;62585;49.706;18.216;2023-04-25T06:50:04;10.18;83.32
74224;SHT31;62585;49.706;18.216;2023-04-25T06:52:31;10.26;78.89
74224;SHT31;62585;49.706;18.216;2023-04-25T06:54:57;10.14;77.35
74224;SHT31;62585;49.706;18.216;2023-04-25T06:57:22;10.09;78.54
74224;SHT31;62585;49.706;18.216;2023-04-25T06:59:49;10.23;79.90
74224;SHT31;62585;49.706;18.216;2023-04-25T07:02:14;10.33;80.40
74224;SHT31;62585;49.706;18.216;2023-04-25T07:04:40;10.35;79.84
74224;SHT31;62585;49.706;18.216;2023-04-25T07:07:06;10.42;82.24
74224;SHT31;62585;49.706;18.216;2023-04-25T07:09:32;10.41;75.91
74224;SHT31;62585;49.706;18.216;2023-04-25T07:12:00;10.52;80.80
74224;SHT31;62585;49.706;18.216;2023-04-25T07:14:27;10.56;81.44
74224;SHT31;62585;49.706;18.216;2023-04-25T07:16:53;10.69;79.19
74224;SHT31;62585;49.706;18.216;2023-04-25T07:19:21;10.66;77.02
74224;SHT31;62585;49.706;18.216;2023-04-25T07:21:46;10.57;76.89
74224;SHT31;62585;49.706;18.216;2023-04-25T07:24:12;10.74;78.12
74224;SHT31;62585;49.706;18.216;2023-04-25T07:26:38;10.85;79.06
74224;SHT31;62585;49.706;18.216;2023-04-25T07:29:04;10.91;78.72
74224;SHT31;62585;49.706;18.216;2023-04-25T07:31:30;11.12;76.78
74224;SHT31;62585;49.706;18.216;2023-04-25T07:33:55;11.18;78.34
74224;SHT31;62585;49.706;18.216;2023-04-25T07:36:21;11.19;79.51
74224;SHT31;62585;49.706;18.216;2023-04-25T07:38:47;11.25;76.58
74224;SHT31;62585;49.706;18.216;2023-04-25T07:41:12;11.34;77.05
74224;SHT31;62585;49.706;18.216;2023-04-25T07:43:38;11.43;80.04
74224;SHT31;62585;49.706;18.216;2023-04-25T07:46:04;11.39;74.39
74224;SHT31;62585;49.706;18.216;2023-04-25T07:48:30;11.52;76.57
74224;SHT31;62585;49.706;18.216;2023-04-25T07:50:56;11.52;71.34
74224;SHT31;62585;49.706;18.216;2023-04-25T07:53:21;11.58;74.87
74224;SHT31;62585;49.706;18.216;2023-04-25T07:55:47;11.70;74.86
74224;SHT31;62585;49.706;18.216;2023-04-25T07:58:13;11.72;72.36
74224;SHT31;62585;49.706;18.216;2023-04-25T08:00:40;11.72;71.35
74224;SHT31;62585;49.706;18.216;2023-04-25T08:03:06;11.67;70.37
74224;SHT31;62585;49.706;18.216;2023-04-25T08:05:33;11.55;70.98
74224;SHT31;62585;49.706;18.216;2023-04-25T08:07:59;11.72;72.68
74224;SHT31;62585;49.706;18.216;2023-04-25T08:10:24;11.84;72.22
74224;SHT31;62585;49.706;18.216;2023-04-25T08:12:50;11.98;72.51
74224;SHT31;62585;49.706;18.216;2023-04-25T08:15:16;12.03;69.37
74224;SHT31;62585;49.706;18.216;2023-04-25T08:17:42;11.84;70.01
74224;SHT31;62585;49.706;18.216;2023-04-25T08:20:09;11.98;70.32
74224;SHT31;62585;49.706;18.216;2023-04-25T08:22:36;12.01;68.47
74224;SHT31;62585;49.706;18.216;2023-04-25T08:25:02;11.84;66.21
74224;SHT31;62585;49.706;18.216;2023-04-25T08:27:28;11.89;69.15
74224;SHT31;62585;49.706;18.216;2023-04-25T08:29:53;11.86;69.54
74224;SHT31;62585;49.706;18.216;2023-04-25T08:32:19;11.75;68.90
74224;SHT31;62585;49.706;18.216;2023-04-25T08:34:46;11.73;70.22
74224;SHT31;62585;49.706;18.216;2023-04-25T08:37:12;11.79;70.67
74224;SHT31;62585;49.706;18.216;2023-04-25T08:39:38;11.83;69.77
74224;SHT31;62585;49.706;18.216;2023-04-25T08:42:05;11.76;69.42
74224;SHT31;62585;49.706;18.216;2023-04-25T08:44:36;11.73;68.59
74224;SHT31;62585;49.706;18.216;2023-04-25T08:47:05;11.79;65.97
74224;SHT31;62585;49.706;18.216;2023-04-25T08:49:34;11.69;67.92
74224;SHT31;62585;49.706;18.216;2023-04-25T08:52:01;11.65;69.18
74224;SHT31;62585;49.706;18.216;2023-04-25T08:54:28;11.67;66.94
74224;SHT31;62585;49.706;18.216;2023-04-25T08:56:57;11.69;67.37
74224;SHT31;62585;49.706;18.216;2023-04-25T08:59:24;11.87;67.24
74224;SHT31;62585;49.706;18.216;2023-04-25T09:01:50;11.89;69.26
74224;SHT31;62585;49.706;18.216;2023-04-25T09:04:17;11.93;66.66
74224;SHT31;62585;49.706;18.216;2023-04-25T09:06:43;11.93;69.15
74224;SHT31;62585;49.706;18.216;2023-04-25T09:09:08;12.01;68.06
74224;SHT31;62585;49.706;18.216;2023-04-25T09:11:36;12.16;65.89
74224;SHT31;62585;49.706;18.216;2023-04-25T09:14:19;12.17;65.62
74224;SHT31;62585;49.706;18.216;2023-04-25T09:17:00;12.27;65.44
74224;SHT31;62585;49.706;18.216;2023-04-25T09:19:31;12.27;65.11
74224;SHT31;62585;49.706;18.216;2023-04-25T09:21:59;12.24;65.47
74224;SHT31;62585;49.706;18.216;2023-04-25T09:24:58;12.20;62.22
74224;SHT31;62585;49.706;18.216;2023-04-25T09:27:27;12.11;63.40
74224;SHT31;62585;49.706;18.216;2023-04-25T09:29:57;12.13;61.75
74224;SHT31;62585;49.706;18.216;2023-04-25T09:32:25;12.23;66.61
74224;SHT31;62585;49.706;18.216;2023-04-25T09:34:53;12.18;62.63
74224;SHT31;62585;49.706;18.216;2023-04-25T09:37:20;12.10;62.48
74224;SHT31;62585;49.706;18.216;2023-04-25T09:39:48;12.13;63.35
74224;SHT31;62585;49.706;18.216;2023-04-25T09:42:15;12.31;62.59
74224;SHT31;62585;49.706;18.216;2023-04-25T09:44:46;12.28;65.11
74224;SHT31;62585;49.706;18.216;2023-04-25T09:47:14;12.31;60.43
74224;SHT31;62585;49.706;18.216;2023-04-25T09:49:42;12.38;61.96
74224;SHT31;62585;49.706;18.216;2023-04-25T09:52:09;12.48;60.36
74224;SHT31;62585;49.706;18.216;2023-04-25T09:54:38;12.63;64.74
74224;SHT31;62585;49.706;18.216;2023-04-25T09:57:11;12.59;59.82
74224;SHT31;62585;49.706;18.216;2023-04-25T09:59:43;12.66;61.69
74224;SHT31;62585;49.706;18.216;2023-04-25T10:02:10;12.59;60.24
74224;SHT31;62585;49.706;18.216;2023-04-25T10:04:37;12.78;58.28
74224;SHT31;62585;49.706;18.216;2023-04-25T10:07:06;12.85;59.66
74224;SHT31;62585;49.706;18.216;2023-04-25T10:09:33;12.92;58.79
74224;SHT31;62585;49.706;18.216;2023-04-25T10:11:59;12.90;57.31
74224;SHT31;62585;49.706;18.216;2023-04-25T10:14:26;13.04;57.87
74224;SHT31;62585;49.706;18.216;2023-04-25T10:16:53;12.89;57.51
74224;SHT31;62585;49.706;18.216;2023-04-25T10:19:22;12.89;59.56
74224;SHT31;62585;49.706;18.216;2023-04-25T10:21:52;13.03;59.78
74224;SHT31;62585;49.706;18.216;2023-04-25T10:24:20;13.00;61.52
74224;SHT31;62585;49.706;18.216;2023-04-25T10:26:46;13.00;57.17
74224;SHT31;62585;49.706;18.216;2023-04-25T10:29:12;12.72;56.73
74224;SHT31;62585;49.706;18.216;2023-04-25T10:31:46;12.83;56.45
74224;SHT31;62585;49.706;18.216;2023-04-25T10:34:16;12.88;58.35
74224;SHT31;62585;49.706;18.216;2023-04-25T10:36:42;12.92;57.79
74224;SHT31;62585;49.706;18.216;2023-04-25T10:39:08;12.96;56.91
74224;SHT31;62585;49.706;18.216;2023-04-25T10:41:46;12.90;54.31
74224;SHT31;62585;49.706;18.216;2023-04-25T10:44:13;12.83;55.42
74224;SHT31;62585;49.706;18.216;2023-04-25T10:46:39;12.88;55.58
74224;SHT31;62585;49.706;18.216;2023-04-25T10:49:07;12.93;55.98
74224;SHT31;62585;49.706;18.216;2023-04-25T10:51:35;12.93;56.10
74224;SHT31;62585;49.706;18.216;2023-04-25T10:54:03;13.09;57.72
74224;SHT31;62585;49.706;18.216;2023-04-25T10:59:16;13.50;59.24
74224;SHT31;62585;49.706;18.216;2023-04-25T11:01:43;13.50;58.83
74224;SHT31;62585;49.706;18.216;2023-04-25T11:09:26;13.43;59.12
74224;SHT31;62585;49.706;18.216;2023-04-25T11:11:54;13.55;56.39
74224;SHT31;62585;49.706;18.216;2023-04-25T11:14:21;13.40;54.67
74224;SHT31;62585;49.706;18.216;2023-04-25T11:16:47;13.44;58.18
74224;SHT31;62585;49.706;18.216;2023-04-25T11:19:13;13.65;59.91
74224;SHT31;62585;49.706;18.216;2023-04-25T11:21:39;13.66;59.62
74224;SHT31;62585;49.706;18.216;2023-04-25T11:24:05;13.54;59.40
74224;SHT31;62585;49.706;18.216;2023-04-25T11:26:31;13.47;57.41
74224;SHT31;62585;49.706;18.216;2023-04-25T11:28:57;13.47;56.00
74224;SHT31;62585;49.706;18.216;2023-04-25T11:31:25;13.69;55.05
74224;SHT31;62585;49.706;18.216;2023-04-25T11:33:53;13.54;54.54
74224;SHT31;62585;49.706;18.216;2023-04-25T11:36:19;13.79;56.22
74224;SHT31;62585;49.706;18.216;2023-04-25T11:38:45;13.86;57.64
74224;SHT31;62585;49.706;18.216;2023-04-25T11:41:10;14.44;57.32
74224;SHT31;62585;49.706;18.216;2023-04-25T11:43:37;14.54;54.19
74224;SHT31;62585;49.706;18.216;2023-04-25T11:46:06;14.71;57.73
74224;SHT31;62585;49.706;18.216;2023-04-25T11:48:40;15.16;55.39
74224;SHT31;62585;49.706;18.216;2023-04-25T11:51:06;15.06;51.63
74224;SHT31;62585;49.706;18.216;2023-04-25T11:53:33;14.89;51.06
74224;SHT31;62585;49.706;18.216;2023-04-25T11:55:59;14.57;54.04
74224;SHT31;62585;49.706;18.216;2023-04-25T11:58:26;14.48;53.62
74224;SHT31;62585;49.706;18.216;2023-04-25T12:00:52;14.84;56.06
74224;SHT31;62585;49.706;18.216;2023-04-25T12:03:18;14.84;55.85
74224;SHT31;62585;49.706;18.216;2023-04-25T12:05:45;14.95;54.59
74224;SHT31;62585;49.706;18.216;2023-04-25T12:08:15;14.47;54.10
74224;SHT31;62585;49.706;18.216;2023-04-25T12:10:42;14.17;53.78
74224;SHT31;62585;49.706;18.216;2023-04-25T12:13:23;14.08;56.74
74224;SHT31;62585;49.706;18.216;2023-04-25T12:15:49;13.96;56.34
74224;SHT31;62585;49.706;18.216;2023-04-25T12:18:19;13.98;54.20
74224;SHT31;62585;49.706;18.216;2023-04-25T12:20:46;13.85;54.34
74224;SHT31;62585;49.706;18.216;2023-04-25T12:23:12;13.72;58.03
74224;SHT31;62585;49.706;18.216;2023-04-25T12:25:42;13.72;58.88
74224;SHT31;62585;49.706;18.216;2023-04-25T12:28:17;13.66;57.11
74224;SHT31;62585;49.706;18.216;2023-04-25T12:30:58;13.64;57.64
74224;SHT31;62585;49.706;18.216;2023-04-25T12:33:26;13.59;58.97
74224;SHT31;62585;49.706;18.216;2023-04-25T12:35:53;13.71;58.21
74224;SHT31;62585;49.706;18.216;2023-04-25T12:38:22;13.69;58.97
74224;SHT31;62585;49.706;18.216;2023-04-25T12:40:48;13.57;61.76
74224;SHT31;62585;49.706;18.216;2023-04-25T12:43:14;13.68;60.00
74224;SHT31;62585;49.706;18.216;2023-04-25T12:45:40;13.65;56.23
74224;SHT31;62585;49.706;18.216;2023-04-25T12:48:06;13.64;57.58
74224;SHT31;62585;49.706;18.216;2023-04-25T12:50:31;13.59;59.48
74224;SHT31;62585;49.706;18.216;2023-04-25T12:52:57;13.47;58.32
74224;SHT31;62585;49.706;18.216;2023-04-25T12:55:23;13.31;58.88
74224;SHT31;62585;49.706;18.216;2023-04-25T12:57:49;13.11;61.47
74224;SHT31;62585;49.706;18.216;2023-04-25T13:00:15;12.97;60.25
74224;SHT31;62585;49.706;18.216;2023-04-25T13:02:43;12.90;59.56
74224;SHT31;62585;49.706;18.216;2023-04-25T13:05:09;12.69;61.91
74224;SHT31;62585;49.706;18.216;2023-04-25T13:07:35;12.65;60.46
74224;SHT31;62585;49.706;18.216;2023-04-25T13:10:00;12.58;62.98
74224;SHT31;62585;49.706;18.216;2023-04-25T13:12:28;12.62;60.54
74224;SHT31;62585;49.706;18.216;2023-04-25T13:14:54;12.62;60.22
74224;SHT31;62585;49.706;18.216;2023-04-25T13:17:20;12.55;61.02
74224;SHT31;62585;49.706;18.216;2023-04-25T13:19:45;12.73;61.52
74224;SHT31;62585;49.706;18.216;2023-04-25T13:22:11;12.69;61.05
74224;SHT31;62585;49.706;18.216;2023-04-25T13:24:37;12.85;61.83
74224;SHT31;62585;49.706;18.216;2023-04-25T13:27:03;12.96;63.57
74224;SHT31;62585;49.706;18.216;2023-04-25T13:29:28;13.09;60.59
74224;SHT31;62585;49.706;18.216;2023-04-25T13:31:54;13.16;61.29
74224;SHT31;62585;49.706;18.216;2023-04-25T13:34:20;13.14;60.58
74224;SHT31;62585;49.706;18.216;2023-04-25T13:36:46;13.16;58.84
74224;SHT31;62585;49.706;18.216;2023-04-25T13:39:11;13.24;62.14
74224;SHT31;62585;49.706;18.216;2023-04-25T13:41:37;13.28;60.38
74224;SHT31;62585;49.706;18.216;2023-04-25T13:44:03;13.28;59.67
74224;SHT31;62585;49.706;18.216;2023-04-25T13:46:29;13.28;60.31
74224;SHT31;62585;49.706;18.216;2023-04-25T13:48:55;13.43;57.29
74224;SHT31;62585;49.706;18.216;2023-04-25T13:51:21;13.62;57.36
74224;SHT31;62585;49.706;18.216;2023-04-25T13:53:46;14.09;57.94
74224;SHT31;62585;49.706;18.216;2023-04-25T13:56:12;14.56;56.75
74224;SHT31;62585;49.706;18.216;2023-04-25T13:58:38;15.13;58.33
74224;SHT31;62585;49.706;18.216;2023-04-25T14:01:04;15.13;53.11
74224;SHT31;62585;49.706;18.216;2023-04-25T14:03:30;15.35;56.48
74224;SHT31;62585;49.706;18.216;2023-04-25T14:05:56;14.96;53.96
74224;SHT31;62585;49.706;18.216;2023-04-25T14:08:22;14.52;53.92
74224;SHT31;62585;49.706;18.216;2023-04-25T14:10:47;14.32;55.85
74224;SHT31;62585;49.706;18.216;2023-04-25T14:13:13;14.19;57.53
74224;SHT31;62585;49.706;18.216;2023-04-25T14:15:39;14.23;57.14
74224;SHT31;62585;49.706;18.216;2023-04-25T14:18:05;14.08;55.53
74224;SHT31;62585;49.706;18.216;2023-04-25T14:20:31;13.58;56.59
74224;SHT31;62585;49.706;18.216;2023-04-25T14:22:57;13.78;57.75
74224;SHT31;62585;49.706;18.216;2023-04-25T14:25:24;13.85;59.14
74224;SHT31;62585;49.706;18.216;2023-04-25T14:27:50;13.69;57.58
74224;SHT31;62585;49.706;18.216;2023-04-25T14:30:17;13.78;58.23
74224;SHT31;62585;49.706;18.216;2023-04-25T14:32:43;13.81;56.93
74224;SHT31;62585;49.706;18.216;2023-04-25T14:35:10;13.44;59.25
74224;SHT31;62585;49.706;18.216;2023-04-25T14:37:35;13.28;62.12
74224;SHT31;62585;49.706;18.216;2023-04-25T14:40:01;13.21;61.98
74224;SHT31;62585;49.706;18.216;2023-04-25T14:42:27;13.18;63.25
74224;SHT31;62585;49.706;18.216;2023-04-25T14:44:53;13.16;67.34
74224;SHT31;62585;49.706;18.216;2023-04-25T14:47:19;12.76;68.43
74224;SHT31;62585;49.706;18.216;2023-04-25T14:49:45;12.17;68.02
74224;SHT31;62585;49.706;18.216;2023-04-25T14:52:16;11.79;73.06
74224;SHT31;62585;49.706;18.216;2023-04-25T14:54:42;11.59;74.26
74224;SHT31;62585;49.706;18.216;2023-04-25T14:57:07;11.27;79.68
74224;SHT31;62585;49.706;18.216;2023-04-25T14:59:33;11.18;82.18
74224;SHT31;62585;49.706;18.216;2023-04-25T15:01:59;11.01;83.27
74224;SHT31;62585;49.706;18.216;2023-04-25T15:04:25;10.76;84.15
74224;SHT31;62585;49.706;18.216;2023-04-25T15:06:51;10.69;85.31
74224;SHT31;62585;49.706;18.216;2023-04-25T15:09:17;10.79;84.64
74224;SHT31;62585;49.706;18.216;2023-04-25T15:11:42;10.85;84.71
74224;SHT31;62585;49.706;18.216;2023-04-25T15:14:08;10.80;82.50
74224;SHT31;62585;49.706;18.216;2023-04-25T15:16:34;10.80;83.82
74224;SHT31;62585;49.706;18.216;2023-04-25T15:19:00;10.93;84.35
74224;SHT31;62585;49.706;18.216;2023-04-25T15:21:32;10.96;85.56
74224;SHT31;62585;49.706;18.216;2023-04-25T15:23:58;10.91;84.23
74224;SHT31;62585;49.706;18.216;2023-04-25T15:26:24;11.08;84.61
74224;SHT31;62585;49.706;18.216;2023-04-25T15:28:50;11.03;82.89